TimeCST,TemperatureF,Dew PointF,Humidity,Sea Level PressureIn,VisibilityMPH,Wind Direction,Wind SpeedMPH,Gust SpeedMPH,PrecipitationIn,Events,Conditions,WindDirDegrees,DateUTC
12:15 AM,40.5,32.2,72,30.09,10.0,SSW,8.1,-,N/A,,Overcast,210,2013-01-06 06:15:00
12:35 AM,42.8,32.0,66,30.08,10.0,SW,9.2,-,N/A,,Overcast,220,2013-01-06 06:35:00
12:55 AM,43.0,32.2,66,30.09,10.0,SW,11.5,-,N/A,,Overcast,220,2013-01-06 06:55:00
1:15 AM,42.8,32.4,67,30.08,10.0,SW,11.5,-,N/A,,Overcast,230,2013-01-06 07:15:00
1:35 AM,43.5,32.5,65,30.08,10.0,WSW,17.3,-,N/A,,Overcast,240,2013-01-06 07:35:00
2:15 AM,43.2,32.2,65,30.09,10.0,WSW,15.0,20.7,N/A,,Overcast,240,2013-01-06 08:15:00
2:35 AM,42.4,32.0,67,30.09,10.0,WSW,15.0,20.7,N/A,,Mostly Cloudy,250,2013-01-06 08:35:00
2:55 AM,41.4,32.0,69,30.09,10.0,WSW,17.3,20.7,N/A,,Mostly Cloudy,250,2013-01-06 08:55:00
3:15 AM,40.1,32.0,73,30.09,10.0,West,15.0,20.7,N/A,,Scattered Clouds,260,2013-01-06 09:15:00
3:35 AM,39.6,31.6,73,30.09,10.0,West,13.8,24.2,N/A,,Clear,270,2013-01-06 09:35:00
3:55 AM,38.8,31.1,74,30.09,10.0,West,15.0,-,N/A,,Scattered Clouds,270,2013-01-06 09:55:00
4:15 AM,38.5,31.1,75,30.09,10.0,West,12.7,-,N/A,,Mostly Cloudy,280,2013-01-06 10:15:00
4:35 AM,37.6,30.2,75,30.10,10.0,West,11.5,-,N/A,,Mostly Cloudy,260,2013-01-06 10:35:00
4:55 AM,36.7,29.8,76,30.10,10.0,West,11.5,-,N/A,,Scattered Clouds,270,2013-01-06 10:55:00
5:15 AM,36.5,29.3,75,30.11,10.0,West,11.5,-,N/A,,Clear,280,2013-01-06 11:15:00
5:35 AM,35.6,29.1,77,30.11,10.0,West,8.1,-,N/A,,Clear,270,2013-01-06 11:35:00
5:55 AM,35.8,28.9,76,30.12,10.0,West,13.8,19.6,N/A,,Clear,280,2013-01-06 11:55:00
6:45 AM,35.6,28.4,75,30.14,10.0,West,16.1,-,N/A,,Overcast,280,2013-01-06 12:45:00
7:45 AM,35.6,26.6,70,30.17,10.0,NW,16.1,28.8,N/A,,Overcast,310,2013-01-06 13:45:00
8:45 AM,35.6,24.8,65,30.21,10.0,WNW,16.1,-,N/A,,Overcast,290,2013-01-06 14:45:00
9:45 AM,35.6,26.6,70,30.23,10.0,WNW,16.1,27.6,N/A,,Overcast,290,2013-01-06 15:45:00
10:45 AM,33.8,24.8,70,30.26,10.0,WNW,11.5,23.0,N/A,,Overcast,300,2013-01-06 16:45:00
11:45 AM,35.6,24.8,65,30.26,10.0,WNW,11.5,-,N/A,,Mostly Cloudy,300,2013-01-06 17:45:00
1:50 PM,39.2,24.8,56,30.27,10.0,WNW,16.1,-,N/A,,Scattered Clouds,300,2013-01-06 19:50:00
2:50 PM,39.2,23.0,52,30.29,10.0,WNW,17.3,-,N/A,,Clear,290,2013-01-06 20:50:00
3:50 PM,39.2,23.0,52,30.32,10.0,NW,17.3,-,N/A,,Clear,310,2013-01-06 21:50:00
4:50 PM,37.4,19.4,48,30.34,10.0,NW,8.1,-,N/A,,Clear,320,2013-01-06 22:50:00
6:50 PM,30.2,21.2,69,30.37,10.0,WNW,6.9,-,N/A,,Clear,290,2013-01-07 00:50:00
8:50 PM,30.2,24.8,80,30.37,10.0,WNW,5.8,-,N/A,,Clear,290,2013-01-07 02:50:00
9:15 PM,27.3,23.0,84,30.37,10.0,Calm,Calm,-,N/A,,Clear,0,2013-01-07 03:15:00
9:35 PM,27.7,23.9,86,30.38,10.0,Calm,Calm,-,N/A,,Clear,0,2013-01-07 03:35:00
9:50 PM,28.4,24.8,86,30.37,10.0,Calm,Calm,-,N/A,,Clear,0,2013-01-07 03:50:00
9:55 PM,27.1,23.0,84,30.37,7.0,Calm,Calm,-,N/A,,Clear,0,2013-01-07 03:55:00
10:15 PM,26.4,21.0,80,30.37,10.0,Calm,Calm,-,N/A,,Clear,0,2013-01-07 04:15:00
10:55 PM,27.7,23.7,85,30.38,7.0,Calm,Calm,-,N/A,,Clear,0,2013-01-07 04:55:00
11:15 PM,26.2,22.6,86,30.39,7.0,Calm,Calm,-,N/A,,Clear,0,2013-01-07 05:15:00